Time;durP1;ratioP1;P1;durP2;ratioP2;P2;SDS_P1;SDS_P2;PMS_P1;PMS_P2;Temp;Humidity;BMP_temperature;BMP_pressure;BME280_temperature;BME280_humidity;BME280_pressure;Samples;Min_cycle;Max_cycle;Signal;HPM_P1;HPM_P2
2021/05/12 00:01:47;;;;;;;2.55;1.23;;;;;;;;;;6239508;28;20461;-73
2021/05/12 00:04:48;;;;;;;1.70;1.20;;;;;;;;;;6244065;28;20105;-73
2021/05/12 00:07:50;;;;;;;2.17;0.95;;;;;;;;;;6242481;28;20067;-73
2021/05/12 00:10:51;;;;;;;1.63;1.08;;;;;;;;;;6222182;28;20105;-74
2021/05/12 00:13:52;;;;;;;2.25;1.27;;;;;;;;;;6253527;28;20124;-73
2021/05/12 00:16:54;;;;;;;1.45;1.10;;;;;;;;;;6244037;28;20622;-74
2021/05/12 00:19:56;;;;;;;2.00;1.15;;;;;;;;;;6248126;28;20048;-73
2021/05/12 00:23:01;;;;;;;2.38;1.25;;;;;;;;;;6247387;28;20060;-74
2021/05/12 00:26:03;;;;;;;2.88;1.10;;;;;;;;;;6248823;28;20047;-73
2021/05/12 00:29:05;;;;;;;2.95;1.27;;;;;;;;;;6244603;28;20053;-74
2021/05/12 00:32:06;;;;;;;2.85;1.33;;;;;;;;;;6250258;28;20041;-73
2021/05/12 00:35:09;;;;;;;3.60;1.30;;;;;;;;;;6258005;28;20059;-73
2021/05/12 00:38:10;;;;;;;1.80;1.33;;;;;;;;;;6259492;28;20044;-74
2021/05/12 00:41:11;;;;;;;3.53;1.38;;;;;;;;;;6254842;28;20045;-71
2021/05/12 00:44:17;;;;;;;4.95;1.40;;;;;;;;;;6257761;28;20044;-72
2021/05/12 00:47:24;;;;;;;2.33;1.27;;;;;;;;;;6269454;28;20066;-71
2021/05/12 00:50:26;;;;;;;1.60;1.17;;;;;;;;;;6288191;28;20135;-71
2021/05/12 00:53:28;;;;;;;1.75;1.25;;;;;;;;;;6264669;28;20052;-71
2021/05/12 00:56:29;;;;;;;3.65;1.55;;;;;;;;;;6256424;28;20137;-71
2021/05/12 00:59:33;;;;;;;3.13;2.30;;;;;;;;;;6257263;28;20037;-71
2021/05/12 01:02:34;;;;;;;4.22;2.05;;;;;;;;;;6246473;28;20059;-72
2021/05/12 01:05:58;;;;;;;2.28;1.85;;;;;;;;;;6557004;22;20085;-72
2021/05/12 01:09:00;;;;;;;2.50;1.90;;;;;;;;;;6280077;28;20072;-73
2021/05/12 01:12:02;;;;;;;2.30;1.80;;;;;;;;;;6284982;28;20190;-71
2021/05/12 01:15:04;;;;;;;3.42;1.85;;;;;;;;;;6285603;28;20399;-72
2021/05/12 01:18:11;;;;;;;2.60;1.70;;;;;;;;;;6296495;28;20151;-71
2021/05/12 01:21:13;;;;;;;4.45;1.90;;;;;;;;;;6301871;28;20040;-72
2021/05/12 01:24:14;;;;;;;2.35;1.45;;;;;;;;;;6307899;28;20064;-71
2021/05/12 01:27:15;;;;;;;10.35;6.03;;;;;;;;;;6314176;28;20127;-72
2021/05/12 01:30:17;;;;;;;32.72;20.15;;;;;;;;;;6313949;28;20127;-72
2021/05/12 01:33:18;;;;;;;15.93;9.27;;;;;;;;;;6298033;28;20120;-72
2021/05/12 01:36:20;;;;;;;7.63;5.45;;;;;;;;;;6302839;28;20068;-72
2021/05/12 01:39:21;;;;;;;2.80;2.10;;;;;;;;;;6308423;28;20048;-72
2021/05/12 01:42:22;;;;;;;1.88;1.20;;;;;;;;;;6313863;28;20043;-73
2021/05/12 01:45:23;;;;;;;2.60;1.60;;;;;;;;;;6312521;28;20513;-74
2021/05/12 01:48:25;;;;;;;4.93;1.60;;;;;;;;;;6313575;28;20513;-72
2021/05/12 01:51:27;;;;;;;2.15;1.40;;;;;;;;;;6315853;28;20040;-72
2021/05/12 01:54:28;;;;;;;2.80;1.50;;;;;;;;;;6311350;28;20143;-71
2021/05/12 01:57:29;;;;;;;3.42;1.95;;;;;;;;;;6313309;28;20056;-72
2021/05/12 02:00:32;;;;;;;4.50;2.20;;;;;;;;;;6314228;28;20140;-69
2021/05/12 02:03:33;;;;;;;5.85;2.88;;;;;;;;;;6314449;28;20171;-71
2021/05/12 02:06:36;;;;;;;4.70;3.30;;;;;;;;;;6317966;28;20186;-71
2021/05/12 02:09:39;;;;;;;5.20;3.25;;;;;;;;;;6300483;28;20044;-72
2021/05/12 02:12:40;;;;;;;4.72;3.50;;;;;;;;;;6315010;28;20134;-71
2021/05/12 02:15:42;;;;;;;5.00;3.95;;;;;;;;;;6316380;28;20064;-71
2021/05/12 02:18:43;;;;;;;4.93;3.28;;;;;;;;;;6309041;28;20051;-71
2021/05/12 02:21:45;;;;;;;6.43;3.35;;;;;;;;;;6313985;28;20056;-70
2021/05/12 02:24:46;;;;;;;5.65;3.50;;;;;;;;;;6311022;28;20041;-71
2021/05/12 02:27:47;;;;;;;3.58;3.00;;;;;;;;;;6310854;28;20048;-71
2021/05/12 02:30:49;;;;;;;3.38;2.60;;;;;;;;;;6317370;28;20135;-71
2021/05/12 02:33:50;;;;;;;3.53;2.10;;;;;;;;;;6318792;28;20098;-71
2021/05/12 02:36:52;;;;;;;2.90;2.30;;;;;;;;;;6321260;28;20498;-71
2021/05/12 02:39:53;;;;;;;2.85;2.38;;;;;;;;;;6313908;28;20051;-71
2021/05/12 02:42:54;;;;;;;2.85;2.38;;;;;;;;;;6316090;28;20067;-71
2021/05/12 02:45:55;;;;;;;3.28;2.20;;;;;;;;;;6314918;28;20119;-72
2021/05/12 02:48:56;;;;;;;3.42;1.90;;;;;;;;;;6307492;28;20542;-71
2021/05/12 02:51:58;;;;;;;2.70;1.90;;;;;;;;;;6311882;28;20044;-73
2021/05/12 02:54:59;;;;;;;3.75;2.10;;;;;;;;;;6314258;28;20036;-72
2021/05/12 02:58:04;;;;;;;4.05;1.70;;;;;;;;;;6310860;28;20054;-71
2021/05/12 03:01:05;;;;;;;11.98;2.55;;;;;;;;;;6314545;28;20060;-70
2021/05/12 03:04:06;;;;;;;2.22;1.67;;;;;;;;;;6313968;28;20143;-71
2021/05/12 03:07:08;;;;;;;2.35;1.80;;;;;;;;;;6308908;28;20622;-71
2021/05/12 03:10:12;;;;;;;2.72;1.80;;;;;;;;;;6316850;28;20127;-71
2021/05/12 03:13:13;;;;;;;3.35;1.75;;;;;;;;;;6318575;28;20044;-71
2021/05/12 03:16:14;;;;;;;5.40;1.83;;;;;;;;;;6308671;28;20123;-71
2021/05/12 03:19:15;;;;;;;3.67;1.60;;;;;;;;;;6309712;28;20155;-71
2021/05/12 03:22:17;;;;;;;4.47;1.80;;;;;;;;;;6306774;28;20138;-72
2021/05/12 03:25:19;;;;;;;2.83;1.52;;;;;;;;;;6317783;28;20044;-73
2021/05/12 03:28:20;;;;;;;3.58;1.73;;;;;;;;;;6306724;28;20165;-72
2021/05/12 03:31:21;;;;;;;2.40;1.50;;;;;;;;;;6313447;28;20131;-71
2021/05/12 03:34:22;;;;;;;4.00;1.80;;;;;;;;;;6309554;28;20032;-72
2021/05/12 03:37:24;;;;;;;8.57;1.90;;;;;;;;;;6310400;28;20040;-73
2021/05/12 03:40:26;;;;;;;3.15;1.70;;;;;;;;;;6312356;28;20044;-71
2021/05/12 03:43:27;;;;;;;4.15;1.88;;;;;;;;;;6313841;28;20546;-74
2021/05/12 03:46:28;;;;;;;5.13;1.80;;;;;;;;;;6313186;28;20471;-72
2021/05/12 03:49:31;;;;;;;2.63;2.03;;;;;;;;;;6317573;28;20166;-71
2021/05/12 03:52:33;;;;;;;3.15;1.60;;;;;;;;;;6312071;28;20057;-71
2021/05/12 03:55:34;;;;;;;3.35;1.75;;;;;;;;;;6311986;28;20726;-74
2021/05/12 03:58:35;;;;;;;4.15;2.25;;;;;;;;;;6315618;28;20498;-73
2021/05/12 04:01:36;;;;;;;4.68;2.35;;;;;;;;;;6308513;28;20056;-71
2021/05/12 04:04:37;;;;;;;5.32;2.58;;;;;;;;;;6307186;28;20048;-71
2021/05/12 04:07:39;;;;;;;4.63;3.00;;;;;;;;;;6315854;28;20062;-71
2021/05/12 04:10:40;;;;;;;6.43;3.25;;;;;;;;;;6300175;28;20564;-71
2021/05/12 04:13:41;;;;;;;6.70;3.47;;;;;;;;;;6309432;28;20073;-71
2021/05/12 04:16:42;;;;;;;4.20;3.60;;;;;;;;;;6304644;28;20043;-75
2021/05/12 04:19:43;;;;;;;5.45;3.92;;;;;;;;;;6294230;28;20056;-71
2021/05/12 04:22:46;;;;;;;7.95;4.80;;;;;;;;;;6290777;28;20048;-72
2021/05/12 04:25:47;;;;;;;9.25;6.28;;;;;;;;;;6282200;28;20093;-74
2021/05/12 04:28:48;;;;;;;8.52;6.13;;;;;;;;;;6283699;28;20061;-72
2021/05/12 04:31:50;;;;;;;7.38;6.00;;;;;;;;;;6278482;28;20555;-71
2021/05/12 04:34:51;;;;;;;10.10;6.07;;;;;;;;;;6281448;28;20067;-71
2021/05/12 04:37:53;;;;;;;9.70;7.32;;;;;;;;;;6283893;28;20066;-71
2021/05/12 04:40:54;;;;;;;7.93;6.22;;;;;;;;;;6298789;28;20051;-71
2021/05/12 04:43:55;;;;;;;9.43;6.63;;;;;;;;;;6300481;28;20048;-71
2021/05/12 04:46:56;;;;;;;9.40;7.43;;;;;;;;;;6285908;28;20055;-71
2021/05/12 04:49:57;;;;;;;12.98;7.20;;;;;;;;;;6270676;28;20045;-71
2021/05/12 04:53:00;;;;;;;13.90;8.55;;;;;;;;;;6304592;28;20185;-70
2021/05/12 04:56:01;;;;;;;12.35;7.55;;;;;;;;;;6297676;28;20588;-71
2021/05/12 04:59:03;;;;;;;10.07;7.97;;;;;;;;;;6315301;28;20048;-71
2021/05/12 05:02:05;;;;;;;11.45;8.25;;;;;;;;;;6304565;28;20131;-71
2021/05/12 05:05:08;;;;;;;12.13;7.93;;;;;;;;;;6305252;28;20406;-71
2021/05/12 05:08:11;;;;;;;10.32;8.25;;;;;;;;;;6310473;28;20479;-76
2021/05/12 05:11:12;;;;;;;11.23;8.80;;;;;;;;;;6305777;28;20054;-74
2021/05/12 05:14:13;;;;;;;11.80;8.80;;;;;;;;;;6311084;28;20051;-74
2021/05/12 05:17:16;;;;;;;11.80;9.93;;;;;;;;;;6314029;28;20089;-71
2021/05/12 05:20:17;;;;;;;13.25;10.48;;;;;;;;;;6313111;28;20429;-73
2021/05/12 05:23:19;;;;;;;14.30;10.13;;;;;;;;;;6312771;28;20135;-71
2021/05/12 05:26:20;;;;;;;15.00;10.80;;;;;;;;;;6311453;28;20056;-71
2021/05/12 05:29:21;;;;;;;13.40;11.45;;;;;;;;;;6312565;28;20047;-71
2021/05/12 05:32:23;;;;;;;15.00;11.48;;;;;;;;;;6303534;28;20124;-70
2021/05/12 05:35:24;;;;;;;15.30;11.43;;;;;;;;;;6311807;28;20068;-71
2021/05/12 05:38:26;;;;;;;14.30;12.52;;;;;;;;;;6314629;28;20558;-71
2021/05/12 05:41:27;;;;;;;16.90;12.23;;;;;;;;;;6310626;28;20071;-71
2021/05/12 05:44:28;;;;;;;14.65;12.40;;;;;;;;;;6315837;28;20373;-73
2021/05/12 05:47:29;;;;;;;16.40;13.13;;;;;;;;;;6315538;28;20130;-73
2021/05/12 05:50:30;;;;;;;14.80;11.88;;;;;;;;;;6307308;28;20043;-73
2021/05/12 05:53:32;;;;;;;20.48;11.95;;;;;;;;;;6311427;28;20055;-71
2021/05/12 05:56:33;;;;;;;18.35;11.80;;;;;;;;;;6318193;28;20079;-71
2021/05/12 05:59:34;;;;;;;12.40;10.35;;;;;;;;;;6312254;28;20136;-71
2021/05/12 06:02:35;;;;;;;11.40;9.15;;;;;;;;;;6316789;28;20551;-74
2021/05/12 06:05:36;;;;;;;11.20;8.48;;;;;;;;;;6321512;28;20048;-72
2021/05/12 06:08:38;;;;;;;11.52;9.10;;;;;;;;;;6314883;28;20066;-74
2021/05/12 06:11:39;;;;;;;9.38;8.38;;;;;;;;;;6315568;28;20050;-73
2021/05/12 06:14:40;;;;;;;10.68;8.73;;;;;;;;;;6318817;28;20046;-72
2021/05/12 06:17:41;;;;;;;13.10;8.77;;;;;;;;;;6317178;28;20071;-72
2021/05/12 06:20:42;;;;;;;9.82;8.55;;;;;;;;;;6316072;28;20498;-74
2021/05/12 06:23:44;;;;;;;10.60;9.50;;;;;;;;;;6314320;28;20127;-72
2021/05/12 06:26:47;;;;;;;11.50;9.43;;;;;;;;;;6304438;28;20044;-72
2021/05/12 06:29:48;;;;;;;12.20;9.93;;;;;;;;;;6313841;28;20123;-75
2021/05/12 06:32:51;;;;;;;12.35;9.30;;;;;;;;;;6316075;28;20066;-72
2021/05/12 06:35:53;;;;;;;10.15;8.20;;;;;;;;;;6313541;28;20044;-74
2021/05/12 06:38:55;;;;;;;11.00;8.55;;;;;;;;;;6307940;28;20048;-72
2021/05/12 06:41:56;;;;;;;12.32;8.40;;;;;;;;;;6313705;28;20064;-73
2021/05/12 06:44:57;;;;;;;10.82;9.73;;;;;;;;;;6318014;28;20043;-75
2021/05/12 06:47:58;;;;;;;10.73;9.63;;;;;;;;;;6320948;28;20048;-73
2021/05/12 06:50:59;;;;;;;16.02;9.30;;;;;;;;;;6316299;28;20051;-73
2021/05/12 06:54:01;;;;;;;11.95;8.80;;;;;;;;;;6317788;28;20069;-72
2021/05/12 06:57:02;;;;;;;11.32;7.78;;;;;;;;;;6311912;28;20043;-73
2021/05/12 07:00:05;;;;;;;7.93;7.13;;;;;;;;;;6311781;28;20055;-74
2021/05/12 07:03:06;;;;;;;6.53;5.75;;;;;;;;;;6279715;28;20186;-74
2021/05/12 07:06:07;;;;;;;5.72;5.13;;;;;;;;;;6307274;28;20131;-73
2021/05/12 07:09:09;;;;;;;8.50;5.40;;;;;;;;;;6307274;28;20063;-75
2021/05/12 07:12:10;;;;;;;8.18;5.85;;;;;;;;;;6310694;28;20547;-71
2021/05/12 07:15:12;;;;;;;10.05;5.70;;;;;;;;;;6306123;28;20094;-73
2021/05/12 07:18:13;;;;;;;7.05;5.05;;;;;;;;;;6312374;28;20715;-73
2021/05/12 07:21:14;;;;;;;10.20;5.13;;;;;;;;;;6314861;28;20189;-72
2021/05/12 07:24:16;;;;;;;6.50;4.50;;;;;;;;;;6304026;28;20443;-74
2021/05/12 07:27:18;;;;;;;6.40;4.50;;;;;;;;;;6304511;28;20084;-73
2021/05/12 07:30:19;;;;;;;5.43;4.55;;;;;;;;;;6305603;28;20135;-71
2021/05/12 07:33:20;;;;;;;7.70;4.43;;;;;;;;;;6304366;28;20063;-71
2021/05/12 07:36:21;;;;;;;6.63;4.43;;;;;;;;;;6307489;28;20048;-71
2021/05/12 07:39:23;;;;;;;7.53;4.70;;;;;;;;;;6306203;28;20051;-74
2021/05/12 07:42:25;;;;;;;5.80;5.20;;;;;;;;;;6307625;28;20101;-73
2021/05/12 07:45:27;;;;;;;7.13;5.25;;;;;;;;;;6307241;28;20125;-72
2021/05/12 07:48:28;;;;;;;10.18;5.63;;;;;;;;;;6307592;28;20042;-72
2021/05/12 07:51:29;;;;;;;9.50;5.25;;;;;;;;;;6306355;28;20058;-72
2021/05/12 07:54:31;;;;;;;7.25;5.20;;;;;;;;;;6307472;28;20070;-72
2021/05/12 07:57:33;;;;;;;4.53;4.13;;;;;;;;;;6304671;28;20052;-73
2021/05/12 08:00:35;;;;;;;6.43;4.45;;;;;;;;;;6301064;28;20363;-72
2021/05/12 08:03:36;;;;;;;9.65;4.80;;;;;;;;;;6305544;28;20085;-72
2021/05/12 08:06:37;;;;;;;6.80;4.53;;;;;;;;;;6303956;28;20836;-72
2021/05/12 08:09:39;;;;;;;5.63;4.22;;;;;;;;;;6306948;28;20060;-73
2021/05/12 08:12:40;;;;;;;5.20;4.25;;;;;;;;;;6297651;28;20043;-73
2021/05/12 08:15:41;;;;;;;8.43;4.22;;;;;;;;;;6302960;28;20052;-72
2021/05/12 08:18:42;;;;;;;4.78;3.90;;;;;;;;;;6311006;28;20160;-73
2021/05/12 08:21:43;;;;;;;4.50;3.90;;;;;;;;;;6304725;28;20631;-72
2021/05/12 08:24:45;;;;;;;5.85;3.55;;;;;;;;;;6305360;28;20044;-71
2021/05/12 08:27:47;;;;;;;4.57;3.65;;;;;;;;;;6312227;28;20402;-73
2021/05/12 08:30:48;;;;;;;6.32;4.00;;;;;;;;;;6296239;28;20041;-73
2021/05/12 08:33:49;;;;;;;4.78;3.30;;;;;;;;;;6301993;28;20044;-70
2021/05/12 08:36:50;;;;;;;7.93;4.10;;;;;;;;;;6304585;28;20058;-71
2021/05/12 08:39:52;;;;;;;5.28;4.00;;;;;;;;;;6306662;28;20044;-71
2021/05/12 08:42:54;;;;;;;5.03;4.30;;;;;;;;;;6305215;28;20043;-71
2021/05/12 08:45:55;;;;;;;5.88;3.92;;;;;;;;;;6303744;28;20044;-71
2021/05/12 08:48:56;;;;;;;5.38;4.03;;;;;;;;;;6307873;28;20055;-71
2021/05/12 08:51:58;;;;;;;3.90;3.53;;;;;;;;;;6305535;28;20040;-73
2021/05/12 08:55:00;;;;;;;11.30;3.05;;;;;;;;;;6302742;28;20063;-73
2021/05/12 08:58:01;;;;;;;5.70;3.97;;;;;;;;;;6303019;28;20048;-76
2021/05/12 09:01:03;;;;;;;4.80;4.13;;;;;;;;;;6298005;28;20051;-71
2021/05/12 09:04:06;;;;;;;5.03;3.80;;;;;;;;;;6303732;28;20151;-71
2021/05/12 09:07:07;;;;;;;4.47;3.42;;;;;;;;;;6297396;28;20044;-72
2021/05/12 09:10:10;;;;;;;5.95;4.13;;;;;;;;;;6303652;28;20132;-73
2021/05/12 09:13:28;;;;;;;3.85;3.22;;;;;;;;;;6304338;28;20664;-73
2021/05/12 09:16:30;;;;;;;5.20;2.90;;;;;;;;;;6303315;28;20079;-72
2021/05/12 09:19:32;;;;;;;5.63;2.40;;;;;;;;;;6302082;28;20491;-71
2021/05/12 09:22:33;;;;;;;3.08;2.78;;;;;;;;;;6312211;28;20450;-71
2021/05/12 09:25:37;;;;;;;3.58;2.78;;;;;;;;;;6306700;28;20406;-71
2021/05/12 09:28:38;;;;;;;5.32;3.13;;;;;;;;;;6298604;28;20163;-71
2021/05/12 09:31:40;;;;;;;3.80;2.88;;;;;;;;;;6293221;28;20052;-71
2021/05/12 09:34:56;;;;;;;3.78;2.67;;;;;;;;;;6308476;28;20101;-71
2021/05/12 09:37:58;;;;;;;3.90;3.03;;;;;;;;;;6308988;28;20040;-71
2021/05/12 09:41:01;;;;;;;5.65;2.83;;;;;;;;;;6302294;28;20495;-72
2021/05/12 09:44:04;;;;;;;;;;;;;;;;;;6308476;28;20054;-71
2021/05/12 09:47:07;;;;;;;3.20;2.90;;;;;;;;;;6308504;28;19981;-71
2021/05/12 09:50:10;;;;;;;4.07;3.50;;;;;;;;;;6307007;28;20643;-71
2021/05/12 09:53:12;;;;;;;3.13;2.83;;;;;;;;;;6296761;28;20127;-71
2021/05/12 09:56:41;;;;;;;3.85;2.50;;;;;;;;;;6298212;28;20126;-71
2021/05/12 09:59:42;;;;;;;3.15;2.33;;;;;;;;;;6301751;28;20049;-73
2021/05/12 10:02:46;;;;;;;2.70;2.10;;;;;;;;;;6308377;28;20047;-71
2021/05/12 10:05:52;;;;;;;3.65;2.80;;;;;;;;;;6309548;28;20363;-73
2021/05/12 10:08:53;;;;;;;4.88;3.22;;;;;;;;;;6308428;28;20048;-75
2021/05/12 10:12:06;;;;;;;3.00;2.45;;;;;;;;;;6307238;28;20055;-72
2021/05/12 10:15:08;;;;;;;3.25;2.95;;;;;;;;;;6308293;28;20146;-73
2021/05/12 10:18:11;;;;;;;3.83;2.67;;;;;;;;;;6308315;28;20046;-72
2021/05/12 10:21:12;;;;;;;5.53;2.80;;;;;;;;;;6307682;28;20140;-73
2021/05/12 10:24:13;;;;;;;3.50;2.70;;;;;;;;;;6310601;28;20050;-73
2021/05/12 10:27:16;;;;;;;3.80;2.50;;;;;;;;;;6307796;28;20044;-73
2021/05/12 10:30:18;;;;;;;5.00;3.58;;;;;;;;;;6307530;28;20047;-71
2021/05/12 10:33:44;;;;;;;3.63;2.47;;;;;;;;;;6304880;28;20060;-74
2021/05/12 10:36:46;;;;;;;3.90;2.55;;;;;;;;;;6310412;28;20151;-74
2021/05/12 10:39:53;;;;;;;3.28;2.63;;;;;;;;;;6314716;28;20047;-73
2021/05/12 10:43:02;;;;;;;5.22;2.80;;;;;;;;;;6306247;28;20044;-72
2021/05/12 10:46:06;;;;;;;3.33;2.60;;;;;;;;;;6311409;28;20129;-74
2021/05/12 10:49:07;;;;;;;4.30;2.47;;;;;;;;;;6303280;28;20044;-73
2021/05/12 10:52:09;;;;;;;2.55;2.20;;;;;;;;;;6302568;28;20055;-71
2021/05/12 10:55:11;;;;;;;3.63;2.28;;;;;;;;;;6314804;28;20122;-75
2021/05/12 10:58:16;;;;;;;3.42;2.85;;;;;;;;;;6307478;28;20143;-70
2021/05/12 11:01:17;;;;;;;3.15;2.60;;;;;;;;;;6309812;28;20040;-73
2021/05/12 11:04:19;;;;;;;15.10;11.25;;;;;;;;;;6307039;28;20414;-74
2021/05/12 11:07:20;;;;;;;10.43;6.82;;;;;;;;;;6305250;28;20445;-75
2021/05/12 11:10:21;;;;;;;16.05;11.02;;;;;;;;;;6309597;28;20063;-74
2021/05/12 11:13:25;;;;;;;9.20;7.20;;;;;;;;;;6310046;28;20047;-72
2021/05/12 11:16:26;;;;;;;31.42;22.27;;;;;;;;;;6313553;28;20139;-71
2021/05/12 11:19:38;;;;;;;114.43;66.30;;;;;;;;;;6302820;28;20138;-71
2021/05/12 11:22:43;;;;;;;15.55;9.40;;;;;;;;;;6310926;28;20196;-72
2021/05/12 11:25:46;;;;;;;4.40;3.35;;;;;;;;;;6307462;28;20044;-74
2021/05/12 11:29:02;;;;;;;5.97;2.40;;;;;;;;;;6316478;28;20060;-76
2021/05/12 11:32:05;;;;;;;4.70;2.53;;;;;;;;;;6312975;28;20071;-72
2021/05/12 11:35:08;;;;;;;4.90;3.10;;;;;;;;;;6310374;28;20059;-72
2021/05/12 11:38:15;;;;;;;4.32;2.63;;;;;;;;;;6300553;28;20132;-72
2021/05/12 11:41:18;;;;;;;2.88;2.45;;;;;;;;;;6305570;28;20047;-73
2021/05/12 11:44:20;;;;;;;4.28;2.70;;;;;;;;;;6308037;28;20048;-74
2021/05/12 11:47:28;;;;;;;3.45;2.40;;;;;;;;;;6304034;28;20047;-73
2021/05/12 11:50:30;;;;;;;4.75;3.80;;;;;;;;;;6303732;28;20071;-73
2021/05/12 11:53:35;;;;;;;5.22;2.95;;;;;;;;;;6304884;28;20048;-70
2021/05/12 11:56:41;;;;;;;3.15;2.85;;;;;;;;;;6304691;28;20052;-72
2021/05/12 11:59:44;;;;;;;4.97;3.22;;;;;;;;;;6306638;28;20109;-71
2021/05/12 12:02:56;;;;;;;3.47;3.17;;;;;;;;;;6307332;28;20044;-72
2021/05/12 12:06:03;;;;;;;3.97;3.17;;;;;;;;;;6306597;28;20032;-72
2021/05/12 12:09:04;;;;;;;3.67;3.20;;;;;;;;;;6308219;28;20050;-73
2021/05/12 12:12:06;;;;;;;3.75;3.25;;;;;;;;;;6307444;28;20042;-70
2021/05/12 12:15:10;;;;;;;3.30;2.97;;;;;;;;;;6307873;28;20482;-72
2021/05/12 12:18:11;;;;;;;3.80;2.92;;;;;;;;;;6306706;28;20135;-72
2021/05/12 12:21:12;;;;;;;4.07;3.07;;;;;;;;;;6311376;28;20056;-72
2021/05/12 12:24:16;;;;;;;5.45;3.58;;;;;;;;;;6310805;28;20670;-73
2021/05/12 12:27:19;;;;;;;5.85;3.70;;;;;;;;;;6306273;28;20154;-73
2021/05/12 12:30:21;;;;;;;7.63;3.97;;;;;;;;;;6305347;28;20145;-76
2021/05/12 12:33:22;;;;;;;4.75;3.67;;;;;;;;;;6305109;28;20051;-72
2021/05/12 12:36:23;;;;;;;6.53;3.95;;;;;;;;;;6310907;28;20039;-74
2021/05/12 12:39:46;;;;;;;9.95;4.55;;;;;;;;;;6309428;28;20044;-75
2021/05/12 12:42:50;;;;;;;3.83;3.28;;;;;;;;;;6305162;28;20075;-74
2021/05/12 12:45:52;;;;;;;5.07;3.45;;;;;;;;;;6309260;28;20097;-74
2021/05/12 12:48:53;;;;;;;6.53;3.92;;;;;;;;;;6307307;28;20072;-74
2021/05/12 12:51:54;;;;;;;4.45;3.25;;;;;;;;;;6294167;28;20178;-75
2021/05/12 12:55:04;;;;;;;4.85;3.63;;;;;;;;;;6312268;28;20071;-74
2021/05/12 12:58:07;;;;;;;4.40;3.22;;;;;;;;;;6311200;28;20048;-73
2021/05/12 13:01:09;;;;;;;4.72;3.55;;;;;;;;;;6302468;28;20141;-74
2021/05/12 13:04:14;;;;;;;5.20;3.30;;;;;;;;;;6309495;28;20361;-74
2021/05/12 13:07:19;;;;;;;4.47;3.40;;;;;;;;;;6305984;28;21094;-74
2021/05/12 13:10:25;;;;;;;5.75;2.95;;;;;;;;;;6311229;28;20109;-76
2021/05/12 13:13:29;;;;;;;3.85;3.50;;;;;;;;;;6307741;28;20054;-75
2021/05/12 13:16:33;;;;;;;5.75;3.17;;;;;;;;;;6311671;28;20437;-76
2021/05/12 13:19:39;;;;;;;3.15;2.85;;;;;;;;;;6306809;28;20067;-75
2021/05/12 13:22:40;;;;;;;3.92;2.88;;;;;;;;;;6307159;28;20055;-76
2021/05/12 13:25:48;;;;;;;4.50;2.72;;;;;;;;;;6307578;28;20044;-74
2021/05/12 13:28:49;;;;;;;3.22;2.90;;;;;;;;;;6306102;28;20048;-75
2021/05/12 13:31:52;;;;;;;4.20;2.80;;;;;;;;;;6304829;28;20048;-76
2021/05/12 13:34:53;;;;;;;6.53;2.53;;;;;;;;;;6309204;28;20060;-74
2021/05/12 13:37:54;;;;;;;5.70;2.50;;;;;;;;;;6310455;28;20670;-74
2021/05/12 13:40:55;;;;;;;4.38;2.53;;;;;;;;;;6310668;28;20471;-73
2021/05/12 13:43:56;;;;;;;4.10;2.40;;;;;;;;;;6293592;28;20510;-73
2021/05/12 13:46:58;;;;;;;2.60;2.40;;;;;;;;;;6266815;28;20040;-74
2021/05/12 13:49:59;;;;;;;3.38;2.35;;;;;;;;;;6302375;28;20048;-77
2021/05/12 13:53:07;;;;;;;3.33;2.00;;;;;;;;;;6295172;28;20060;-74
2021/05/12 13:56:13;;;;;;;2.63;1.90;;;;;;;;;;6309440;28;20079;-75
2021/05/12 14:02:52;;;;;;;3.97;1.70;;;;;;;;;;6251777;28;20378;-73
2021/05/12 14:05:53;;;;;;;4.57;2.35;;;;;;;;;;6298829;28;20066;-74
2021/05/12 14:08:57;;;;;;;3.55;2.15;;;;;;;;;;6309435;28;20045;-75
2021/05/12 14:12:00;;;;;;;2.60;1.90;;;;;;;;;;6309640;28;20053;-74
2021/05/12 14:15:02;;;;;;;2.95;1.63;;;;;;;;;;6308090;28;20463;-75
2021/05/12 14:18:07;;;;;;;;;;;;;;;;;;6310500;28;20048;-72
2021/05/12 14:21:08;;;;;;;5.38;2.60;;;;;;;;;;6307204;28;19973;-74
2021/05/12 14:24:09;;;;;;;4.20;1.55;;;;;;;;;;6306188;28;20040;-75
2021/05/12 14:27:11;;;;;;;7.43;1.63;;;;;;;;;;6307752;28;20063;-74
2021/05/12 14:30:13;;;;;;;2.40;1.40;;;;;;;;;;6311122;28;20396;-74
2021/05/12 14:33:15;;;;;;;2.95;1.40;;;;;;;;;;6315372;28;20052;-73
2021/05/12 14:36:16;;;;;;;3.67;1.30;;;;;;;;;;6310279;28;20084;-75
2021/05/12 14:39:19;;;;;;;1.95;0.85;;;;;;;;;;6313364;28;20512;-74
2021/05/12 14:42:20;;;;;;;2.10;0.90;;;;;;;;;;6309468;28;20048;-74
2021/05/12 14:45:21;;;;;;;1.33;0.70;;;;;;;;;;6308889;28;20040;-73
2021/05/12 14:48:27;;;;;;;1.23;0.60;;;;;;;;;;6302962;28;20051;-76
2021/05/12 14:51:29;;;;;;;2.88;0.60;;;;;;;;;;6311604;28;20442;-75
2021/05/12 14:54:35;;;;;;;0.90;0.57;;;;;;;;;;6310808;28;20139;-73
2021/05/12 15:01:09;;;;;;;2.67;0.60;;;;;;;;;;6279567;28;20040;-76
2021/05/12 15:04:18;;;;;;;4.60;0.80;;;;;;;;;;6306754;28;20409;-72
2021/05/12 15:07:18;;;;;;;0.80;0.80;;;;;;;;;;6301996;28;20033;-75
2021/05/12 15:10:20;;;;;;;1.83;0.77;;;;;;;;;;6309183;28;20075;-75
2021/05/12 15:13:21;;;;;;;2.40;0.98;;;;;;;;;;6291223;28;20048;-75
2021/05/12 15:16:22;;;;;;;1.75;0.90;;;;;;;;;;6271710;28;20055;-74
2021/05/12 15:19:24;;;;;;;3.10;0.80;;;;;;;;;;6298367;28;20055;-73
2021/05/12 15:22:25;;;;;;;2.33;0.95;;;;;;;;;;6304766;28;20040;-74
2021/05/12 15:25:26;;;;;;;1.45;0.80;;;;;;;;;;6305793;28;20044;-74
2021/05/12 15:28:27;;;;;;;1.05;0.60;;;;;;;;;;6302909;28;20069;-73
2021/05/12 15:31:28;;;;;;;1.98;0.65;;;;;;;;;;6303823;28;20454;-75
2021/05/12 15:34:30;;;;;;;1.10;0.77;;;;;;;;;;6304983;28;20117;-74
2021/05/12 15:37:31;;;;;;;1.40;0.75;;;;;;;;;;6307390;28;20048;-74
2021/05/12 15:40:32;;;;;;;1.02;0.60;;;;;;;;;;6306671;28;20123;-73
2021/05/12 15:43:33;;;;;;;2.65;0.47;;;;;;;;;;6310664;28;20054;-76
2021/05/12 15:46:34;;;;;;;3.05;0.80;;;;;;;;;;6307811;28;20052;-73
2021/05/12 15:49:36;;;;;;;1.23;0.60;;;;;;;;;;6309147;28;20047;-73
2021/05/12 15:52:37;;;;;;;0.38;0.38;;;;;;;;;;6307980;28;20372;-73
2021/05/12 15:55:39;;;;;;;1.02;0.60;;;;;;;;;;6307119;28;20530;-73
2021/05/12 15:58:40;;;;;;;0.70;0.30;;;;;;;;;;6308088;28;20131;-74
2021/05/12 16:01:41;;;;;;;0.38;0.22;;;;;;;;;;6305725;28;20040;-73
2021/05/12 16:04:44;;;;;;;0.35;0.30;;;;;;;;;;6303164;28;20131;-72
2021/05/12 16:07:45;;;;;;;0.93;0.30;;;;;;;;;;6302848;28;20451;-72
2021/05/12 16:10:48;;;;;;;1.98;0.40;;;;;;;;;;6308831;28;20123;-75
2021/05/12 16:13:49;;;;;;;1.90;0.30;;;;;;;;;;6310711;28;20047;-72
2021/05/12 16:16:53;;;;;;;0.52;0.30;;;;;;;;;;6306775;28;20217;-75
2021/05/12 16:19:55;;;;;;;0.80;0.70;;;;;;;;;;6306244;28;20153;-75
2021/05/12 16:22:57;;;;;;;0.20;0.20;;;;;;;;;;6299538;28;20143;-76
2021/05/12 16:25:58;;;;;;;0.50;0.30;;;;;;;;;;6297895;28;20594;-74
2021/05/12 16:28:59;;;;;;;0.65;0.30;;;;;;;;;;6304388;28;20044;-74
2021/05/12 16:32:01;;;;;;;1.40;0.20;;;;;;;;;;6307328;28;20123;-72
2021/05/12 16:35:03;;;;;;;0.52;0.20;;;;;;;;;;6303761;28;20056;-74
2021/05/12 16:38:07;;;;;;;0.77;0.30;;;;;;;;;;6311236;28;20126;-72
2021/05/12 16:41:08;;;;;;;2.63;0.20;;;;;;;;;;6308729;28;20066;-72
2021/05/12 16:44:09;;;;;;;0.40;0.30;;;;;;;;;;6307662;28;20050;-74
2021/05/12 16:47:10;;;;;;;2.20;0.60;;;;;;;;;;6306516;28;20089;-70
2021/05/12 16:50:12;;;;;;;2.58;0.90;;;;;;;;;;6305034;28;20044;-74
2021/05/12 16:53:15;;;;;;;6.33;0.80;;;;;;;;;;6304743;28;20044;-70
2021/05/12 16:56:16;;;;;;;1.40;0.70;;;;;;;;;;6304563;28;20231;-74
2021/05/12 16:59:19;;;;;;;4.45;0.85;;;;;;;;;;6307631;28;20093;-71
2021/05/12 17:02:20;;;;;;;5.50;0.87;;;;;;;;;;6304907;28;20105;-74
2021/05/12 17:05:22;;;;;;;5.80;0.70;;;;;;;;;;6305060;28;20563;-75
2021/05/12 17:08:24;;;;;;;1.20;0.73;;;;;;;;;;6289743;28;20055;-72
2021/05/12 17:11:32;;;;;;;1.92;0.50;;;;;;;;;;6294447;28;20040;-74
2021/05/12 17:14:33;;;;;;;0.95;0.60;;;;;;;;;;6311140;28;20065;-78
2021/05/12 17:17:34;;;;;;;2.35;0.77;;;;;;;;;;6287668;28;20555;-75
2021/05/12 17:20:36;;;;;;;2.97;0.77;;;;;;;;;;6297858;28;20052;-73
2021/05/12 17:23:37;;;;;;;10.15;0.73;;;;;;;;;;6281607;28;20577;-73
2021/05/12 17:26:38;;;;;;;2.30;0.80;;;;;;;;;;6281261;28;20144;-77
2021/05/12 17:29:40;;;;;;;2.40;0.77;;;;;;;;;;6307067;28;20131;-72
2021/05/12 17:32:41;;;;;;;3.60;0.80;;;;;;;;;;6303164;28;20040;-71
2021/05/12 17:35:44;;;;;;;7.72;1.50;;;;;;;;;;6301599;28;20048;-72
2021/05/12 17:38:45;;;;;;;6.20;1.50;;;;;;;;;;6310384;28;20063;-71
2021/05/12 17:41:46;;;;;;;2.35;0.93;;;;;;;;;;6305323;28;20490;-74
2021/05/12 17:44:54;;;;;;;2.80;0.90;;;;;;;;;;6288954;28;20543;-72
2021/05/12 17:47:57;;;;;;;6.60;2.40;;;;;;;;;;6273536;28;20407;-71
2021/05/12 17:51:02;;;;;;;1.75;1.10;;;;;;;;;;6296480;28;20048;-72
2021/05/12 17:54:03;;;;;;;1.92;1.10;;;;;;;;;;6300046;28;20044;-72
2021/05/12 17:57:06;;;;;;;2.22;1.13;;;;;;;;;;6281656;28;20503;-73
2021/05/12 18:00:10;;;;;;;1.58;1.10;;;;;;;;;;6299443;28;20040;-72
2021/05/12 18:03:11;;;;;;;2.67;0.90;;;;;;;;;;6305897;28;20527;-76
2021/05/12 18:06:14;;;;;;;3.28;0.88;;;;;;;;;;6311939;28;20139;-78
2021/05/12 18:09:15;;;;;;;3.13;1.05;;;;;;;;;;6309240;28;20446;-76
2021/05/12 18:12:34;;;;;;;10.23;0.90;;;;;;;;;;6302753;28;20044;-73
2021/05/12 18:18:55;;;;;;;2.00;0.77;;;;;;;;;;6305151;28;20052;-71
2021/05/12 18:21:57;;;;;;;3.13;0.80;;;;;;;;;;6286019;28;20089;-76